createdAt,value
2022-11-18T00:01:59.695Z,38.42
2022-11-18T00:07:07.424Z,34.00
2022-11-18T00:12:24.773Z,41.17
2022-11-18T00:17:30.379Z,33.72
2022-11-18T00:22:38.020Z,39.90
2022-11-18T00:27:43.016Z,37.40
2022-11-18T00:32:47.981Z,35.38
2022-11-18T00:37:55.555Z,32.33
2022-11-18T00:43:00.897Z,33.17
2022-11-18T00:48:05.967Z,36.17
2022-11-18T00:53:13.682Z,34.85
2022-11-18T00:58:18.802Z,37.90
2022-11-18T01:03:25.782Z,35.60
2022-11-18T01:08:33.442Z,38.15
2022-11-18T01:13:38.437Z,31.98
2022-11-18T01:18:43.487Z,38.38
2022-11-18T01:23:51.082Z,31.05
2022-11-18T01:28:58.548Z,35.10
2022-11-18T01:34:04.010Z,45.63
2022-11-18T01:39:11.900Z,29.45
2022-11-18T01:44:46.531Z,32.40
2022-11-18T01:49:51.650Z,29.60
2022-11-18T01:55:01.789Z,29.38
2022-11-18T02:00:12.693Z,33.53
2022-11-18T02:05:17.828Z,31.45
2022-11-18T02:10:27.955Z,36.35
2022-11-18T02:15:44.654Z,32.60
2022-11-18T02:20:51.486Z,35.97
2022-11-18T02:26:09.312Z,30.50
2022-11-18T02:31:20.697Z,31.13
2022-11-18T02:36:30.334Z,39.88
2022-11-18T02:41:37.509Z,31.98
2022-11-18T02:46:48.710Z,31.20
2022-11-18T02:51:53.937Z,31.10
2022-11-18T02:56:59.181Z,33.47
2022-11-18T03:02:06.977Z,32.10
2022-11-18T03:07:16.163Z,33.20
2022-11-18T03:12:27.102Z,28.77
2022-11-18T03:17:44.360Z,33.08
2022-11-18T03:23:02.860Z,35.13
2022-11-18T03:28:17.071Z,31.52
2022-11-18T03:33:28.421Z,28.63
2022-11-18T03:38:35.775Z,38.05
2022-11-18T03:43:43.343Z,36.25
2022-11-18T03:49:04.713Z,38.45
2022-11-18T03:54:12.576Z,38.38
2022-11-18T03:59:22.208Z,37.03
2022-11-18T04:04:30.346Z,38.40
2022-11-18T04:09:38.927Z,36.15
2022-11-18T04:14:45.750Z,33.50
2022-11-18T04:19:53.373Z,37.90
2022-11-18T04:24:58.469Z,34.63
2022-11-18T04:30:03.529Z,35.08
2022-11-18T04:35:12.069Z,31.60
2022-11-18T04:40:17.017Z,36.50
2022-11-18T04:45:22.095Z,31.90
2022-11-18T04:50:29.678Z,31.83
2022-11-18T04:55:34.706Z,31.67
2022-11-18T05:00:39.815Z,34.97
2022-11-18T05:05:47.404Z,32.40
2022-11-18T05:11:12.392Z,32.78
2022-11-18T05:16:17.393Z,40.08
2022-11-18T05:21:25.090Z,32.70
2022-11-18T05:26:30.322Z,30.27
2022-11-18T05:31:35.314Z,32.72
2022-11-18T05:36:42.920Z,31.40
2022-11-18T05:42:00.185Z,33.88
2022-11-18T05:47:05.172Z,28.92
2022-11-18T05:52:13.050Z,32.03
2022-11-18T05:57:18.030Z,30.70
2022-11-18T06:02:26.075Z,28.63
2022-11-18T06:07:38.148Z,27.05
2022-11-18T06:12:45.382Z,31.73
2022-11-18T06:17:52.402Z,31.05
2022-11-18T06:23:02.054Z,27.83
2022-11-18T06:28:07.340Z,34.38
2022-11-18T06:33:12.646Z,31.05
2022-11-18T06:38:20.203Z,39.70
2022-11-18T06:43:37.710Z,30.40
2022-11-18T06:48:42.655Z,30.65
2022-11-18T06:53:50.809Z,26.35
2022-11-18T06:59:00.116Z,28.85
2022-11-18T07:04:05.655Z,30.20
2022-11-18T07:09:13.372Z,27.05
2022-11-18T07:14:18.352Z,26.80
2022-11-18T07:19:23.383Z,28.50
2022-11-18T07:24:31.345Z,38.42
2022-11-18T07:29:36.355Z,45.80
2022-11-18T07:34:43.530Z,58.50
2022-11-18T07:39:53.709Z,43.78
2022-11-18T07:50:03.721Z,39.58
2022-11-18T07:55:12.232Z,34.60
2022-11-18T08:00:18.359Z,37.13
2022-11-18T08:05:23.506Z,39.55
2022-11-18T08:10:31.222Z,105.40
2022-11-18T08:15:36.150Z,66.25
2022-11-18T08:20:41.147Z,55.60
2022-11-18T08:25:49.129Z,68.68
2022-11-18T08:30:54.110Z,47.85
2022-11-18T08:35:59.143Z,44.78
2022-11-18T08:41:07.554Z,47.30
2022-11-18T08:46:12.587Z,47.97
2022-11-18T08:51:17.616Z,42.25
2022-11-18T08:56:26.484Z,30.85
2022-11-18T09:01:31.569Z,45.33
2022-11-18T09:06:38.639Z,51.70
2022-11-18T09:11:46.280Z,57.47
2022-11-18T09:16:54.921Z,41.13
2022-11-18T09:21:59.982Z,35.15
2022-11-18T09:27:15.190Z,44.70
2022-11-18T09:32:21.973Z,51.72
2022-11-18T09:37:27.352Z,45.13
2022-11-18T09:42:52.032Z,43.63
2022-11-18T09:48:00.622Z,43.67
2022-11-18T09:53:11.783Z,51.50
2022-11-18T09:58:21.935Z,39.22
2022-11-18T10:03:30.658Z,37.25
2022-11-18T10:08:40.216Z,34.22
2022-11-18T10:13:54.959Z,33.63
2022-11-18T10:19:06.175Z,37.92
2022-11-18T10:24:16.526Z,37.47
2022-11-18T10:29:24.495Z,36.00
2022-11-18T10:34:29.871Z,29.75
2022-11-18T10:39:35.346Z,29.08
2022-11-18T10:44:44.525Z,26.50
2022-11-18T10:49:49.502Z,30.83
2022-11-18T10:55:24.946Z,29.90
2022-11-18T11:00:46.757Z,26.08
2022-11-18T11:05:51.917Z,30.83
2022-11-18T11:10:58.666Z,26.30
2022-11-18T11:16:08.779Z,32.53
2022-11-18T11:21:15.589Z,21.67
2022-11-18T11:32:03.120Z,22.15
2022-11-18T11:37:17.392Z,43.40
2022-11-18T11:42:32.785Z,35.60
2022-11-18T11:47:50.810Z,31.30
2022-11-18T11:53:08.637Z,29.98
2022-11-18T11:58:32.859Z,35.72
2022-11-18T12:03:52.171Z,29.13
2022-11-18T12:09:08.193Z,29.67
2022-11-18T12:14:18.512Z,28.27
2022-11-18T12:19:27.002Z,26.65
2022-11-18T12:24:34.457Z,31.63
2022-11-18T12:29:45.340Z,26.35
2022-11-18T12:34:59.697Z,26.65
2022-11-18T12:40:04.882Z,27.15
2022-11-18T12:45:39.606Z,26.90
2022-11-18T12:50:54.931Z,31.05
2022-11-18T12:56:00.666Z,28.98
2022-11-18T13:01:11.073Z,51.25
2022-11-18T13:06:26.451Z,28.08
2022-11-18T13:11:48.333Z,22.75
2022-11-18T13:17:06.108Z,20.50
2022-11-18T13:22:33.549Z,25.63
2022-11-18T13:27:47.803Z,22.60
2022-11-18T13:33:01.941Z,31.40
2022-11-18T13:38:11.593Z,29.55
2022-11-18T13:43:16.649Z,17.38
2022-11-18T13:48:21.788Z,17.58
2022-11-18T13:53:33.998Z,15.50
2022-11-18T14:04:10.585Z,58.97
2022-11-18T14:09:28.795Z,14.90
2022-11-18T14:14:36.943Z,18.63
2022-11-18T14:19:43.017Z,24.70
2022-11-18T14:24:58.110Z,25.45
2022-11-18T14:30:03.088Z,18.00
2022-11-18T14:35:08.632Z,22.70
2022-11-18T14:40:19.993Z,37.85
2022-11-18T14:45:27.427Z,44.05
2022-11-18T14:50:32.412Z,47.28
2022-11-18T14:55:40.035Z,70.82
2022-11-18T15:00:45.865Z,108.70
2022-11-18T15:05:50.983Z,36.35
2022-11-18T15:11:00.258Z,37.58
2022-11-18T15:16:09.442Z,47.60
2022-11-18T15:21:14.957Z,39.17
2022-11-18T15:26:25.048Z,51.15
2022-11-18T15:31:30.016Z,40.85
2022-11-18T15:36:35.063Z,40.50
2022-11-18T15:41:44.114Z,40.53
2022-11-18T15:46:49.727Z,41.35
2022-11-18T15:51:54.728Z,65.88
2022-11-18T15:57:02.309Z,74.70
2022-11-18T16:02:07.360Z,59.50
2022-11-18T16:07:12.491Z,54.42
2022-11-18T16:12:32.613Z,48.40
2022-11-18T16:17:37.767Z,43.35
2022-11-18T16:22:42.793Z,39.50
2022-11-18T16:27:52.954Z,30.30
2022-11-18T16:32:58.066Z,24.73
2022-11-18T16:38:03.157Z,29.15
2022-11-18T16:43:10.926Z,22.83
2022-11-18T16:48:15.950Z,25.88
2022-11-18T16:53:22.090Z,23.02
2022-11-18T16:58:29.700Z,25.40
2022-11-18T17:03:36.892Z,24.50
2022-11-18T17:08:42.336Z,26.17
2022-11-18T17:13:53.332Z,26.40
2022-11-18T17:19:10.204Z,30.95
2022-11-18T17:24:18.453Z,34.22
2022-11-18T17:29:26.261Z,35.35
2022-11-18T17:34:31.375Z,29.25
2022-11-18T17:39:36.447Z,19.85
2022-11-18T17:44:44.142Z,21.70
2022-11-18T17:49:49.348Z,19.05
2022-11-18T17:54:54.809Z,25.23
2022-11-18T18:00:02.513Z,28.77
2022-11-18T18:05:09.797Z,22.77
2022-11-18T18:10:15.452Z,24.38
2022-11-18T18:15:23.342Z,24.50
2022-11-18T18:20:28.620Z,24.58
2022-11-18T18:25:33.646Z,22.88
2022-11-18T18:30:41.382Z,23.50
2022-11-18T18:35:46.622Z,21.30
2022-11-18T18:40:52.013Z,21.02
2022-11-18T18:46:16.256Z,19.80
2022-11-18T18:51:21.336Z,17.92
2022-11-18T18:56:26.346Z,17.63
2022-11-18T19:01:35.890Z,16.85
2022-11-18T19:06:51.990Z,8.27
2022-11-18T19:12:11.124Z,5.57
2022-11-18T19:17:19.067Z,4.10
2022-11-18T19:22:24.224Z,7.50
2022-11-18T19:27:29.440Z,4.65
2022-11-18T19:32:38.602Z,4.63
2022-11-18T19:37:43.901Z,4.60
2022-11-18T19:42:50.256Z,4.72
2022-11-18T19:47:57.794Z,4.93
2022-11-18T19:53:22.885Z,12.18
2022-11-18T19:58:28.141Z,10.77
2022-11-18T20:03:36.928Z,8.18
2022-11-18T20:08:42.996Z,5.75
2022-11-18T20:13:48.929Z,6.93
2022-11-18T20:18:58.705Z,8.68
2022-11-18T20:24:04.666Z,5.70
2022-11-18T20:29:10.394Z,6.10
2022-11-18T20:34:18.082Z,7.85
2022-11-18T20:39:23.313Z,7.68
2022-11-18T20:44:28.730Z,5.78
2022-11-18T20:49:39.105Z,6.10
2022-11-18T20:54:45.768Z,5.43
2022-11-18T20:59:50.841Z,6.78
2022-11-18T21:04:58.408Z,6.57
2022-11-18T21:10:03.526Z,5.70
2022-11-18T21:15:10.330Z,6.18
2022-11-18T21:20:30.203Z,8.82
2022-11-18T21:25:35.744Z,5.83
2022-11-18T21:30:41.107Z,8.25
2022-11-18T21:35:52.172Z,8.52
2022-11-18T21:40:57.288Z,9.98
2022-11-18T21:46:04.636Z,15.02
2022-11-18T21:51:14.790Z,13.38
2022-11-18T21:56:22.379Z,7.28
2022-11-18T22:01:29.234Z,9.13
2022-11-18T22:06:37.090Z,9.95
2022-11-18T22:11:42.080Z,9.98
2022-11-18T22:16:47.639Z,11.27
2022-11-18T22:21:55.467Z,10.60
2022-11-18T22:27:00.710Z,11.38
2022-11-18T22:32:05.785Z,13.05
2022-11-18T22:37:13.374Z,12.07
2022-11-18T22:42:30.658Z,13.32
2022-11-18T22:47:35.676Z,10.95
2022-11-18T22:52:43.450Z,11.65
2022-11-18T22:57:48.466Z,9.88
2022-11-18T23:02:53.507Z,13.27
2022-11-18T23:08:01.247Z,15.35
2022-11-18T23:13:18.612Z,13.13
2022-11-18T23:18:23.593Z,13.07
2022-11-18T23:23:31.382Z,13.43
2022-11-18T23:28:37.772Z,13.55
2022-11-18T23:33:43.365Z,13.35
2022-11-18T23:38:51.262Z,11.13
2022-11-18T23:43:56.211Z,13.45
2022-11-18T23:49:01.452Z,10.63
2022-11-18T23:54:09.344Z,11.75
2022-11-18T23:59:14.365Z,10.15
